createdAt,value
2023-03-06T00:02:03.620Z,77.14
2023-03-06T00:04:25.334Z,76.87
2023-03-06T00:06:46.934Z,76.81
2023-03-06T00:09:09.803Z,76.72
2023-03-06T00:11:31.434Z,76.88
2023-03-06T00:13:53.164Z,76.88
2023-03-06T00:16:15.007Z,76.53
2023-03-06T00:18:36.577Z,76.48
2023-03-06T00:20:58.227Z,76.50
2023-03-06T00:23:19.890Z,77.15
2023-03-06T00:25:46.043Z,77.08
2023-03-06T00:28:07.666Z,76.95
2023-03-06T00:30:29.482Z,77.30
2023-03-06T00:32:53.438Z,76.86
2023-03-06T00:35:16.520Z,76.72
2023-03-06T00:37:39.746Z,76.90
2023-03-06T00:40:01.685Z,76.93
2023-03-06T00:42:23.288Z,76.84
2023-03-06T00:44:47.248Z,77.00
2023-03-06T00:47:08.982Z,77.25
2023-03-06T00:49:30.582Z,76.74
2023-03-06T00:51:52.350Z,76.96
2023-03-06T00:54:13.944Z,77.21
2023-03-06T00:56:35.567Z,77.27
2023-03-06T00:58:57.224Z,77.67
2023-03-06T01:01:20.373Z,77.79
2023-03-06T01:03:41.994Z,77.71
2023-03-06T01:06:03.872Z,77.93
2023-03-06T01:08:25.548Z,77.60
2023-03-06T01:10:50.892Z,77.40
2023-03-06T01:13:12.504Z,77.41
2023-03-06T01:15:34.264Z,77.38
2023-03-06T01:17:55.937Z,77.48
2023-03-06T01:20:18.415Z,77.18
2023-03-06T01:22:40.053Z,77.50
2023-03-06T01:25:01.773Z,77.47
2023-03-06T01:27:23.373Z,77.48
2023-03-06T01:29:44.985Z,77.62
2023-03-06T01:32:07.136Z,77.41
2023-03-06T01:34:28.791Z,77.58
2023-03-06T01:36:50.479Z,77.50
2023-03-06T01:39:12.221Z,78.02
2023-03-06T01:41:33.911Z,78.03
2023-03-06T01:43:56.241Z,78.17
2023-03-06T01:46:28.746Z,78.11
2023-03-06T01:49:05.545Z,78.10
2023-03-06T01:51:35.439Z,78.27
2023-03-06T01:54:05.155Z,78.06
2023-03-06T01:56:27.298Z,78.42
2023-03-06T01:58:49.693Z,78.29
2023-03-06T02:01:14.575Z,77.74
2023-03-06T02:03:36.630Z,78.08
2023-03-06T02:06:00.242Z,78.38
2023-03-06T02:08:24.027Z,78.51
2023-03-06T02:11:10.549Z,78.55
2023-03-06T02:13:32.488Z,78.21
2023-03-06T02:15:54.259Z,78.27
2023-03-06T02:18:15.918Z,78.29
2023-03-06T02:20:48.615Z,79.04
2023-03-06T02:23:34.033Z,79.29
2023-03-06T02:25:57.582Z,79.61
2023-03-06T02:28:23.059Z,79.69
2023-03-06T02:30:47.327Z,80.11
2023-03-06T02:33:19.962Z,80.35
2023-03-06T02:35:51.578Z,80.43
2023-03-06T02:38:20.207Z,81.10
2023-03-06T02:40:46.883Z,81.03
2023-03-06T02:43:10.337Z,80.66
2023-03-06T02:45:42.561Z,80.10
2023-03-06T02:48:05.076Z,80.34
2023-03-06T02:50:26.794Z,80.54
2023-03-06T02:52:48.476Z,80.55
2023-03-06T02:55:10.382Z,80.68
2023-03-06T02:57:32.124Z,80.46
2023-03-06T02:59:56.005Z,80.33
2023-03-06T03:02:17.957Z,80.39
2023-03-06T03:04:39.710Z,80.10
2023-03-06T03:07:01.867Z,80.09
2023-03-06T03:09:23.630Z,80.39
2023-03-06T03:11:45.221Z,80.42
2023-03-06T03:14:07.048Z,80.49
2023-03-06T03:16:28.759Z,80.36
2023-03-06T03:18:53.231Z,80.58
2023-03-06T03:21:17.983Z,79.96
2023-03-06T03:23:41.691Z,79.93
2023-03-06T03:26:10.241Z,80.25
2023-03-06T03:28:35.006Z,79.83
2023-03-06T03:31:01.898Z,80.10
2023-03-06T03:33:23.807Z,80.14
2023-03-06T03:35:45.456Z,79.50
2023-03-06T03:38:07.202Z,80.01
2023-03-06T03:40:29.344Z,79.82
2023-03-06T03:42:53.148Z,79.70
2023-03-06T03:45:15.479Z,79.69
2023-03-06T03:47:37.752Z,79.47
2023-03-06T03:50:00.696Z,79.70
2023-03-06T03:52:22.412Z,79.82
2023-03-06T03:54:44.082Z,79.96
2023-03-06T03:57:06.005Z,80.14
2023-03-06T03:59:31.072Z,79.55
2023-03-06T04:02:04.885Z,79.63
2023-03-06T04:04:31.320Z,79.79
2023-03-06T04:06:52.973Z,79.82
2023-03-06T04:09:14.969Z,79.91
2023-03-06T04:11:37.069Z,80.06
2023-03-06T04:13:58.752Z,79.96
2023-03-06T04:16:20.831Z,79.86
2023-03-06T04:18:43.958Z,79.76
2023-03-06T04:21:06.028Z,80.27
2023-03-06T04:23:28.438Z,79.93
2023-03-06T04:25:51.452Z,80.08
2023-03-06T04:28:14.459Z,79.91
2023-03-06T04:30:36.341Z,80.32
2023-03-06T04:32:58.514Z,80.24
2023-03-06T04:35:20.441Z,80.55
2023-03-06T04:37:50.662Z,80.79
2023-03-06T04:40:20.220Z,80.56
2023-03-06T04:42:41.802Z,80.77
2023-03-06T04:45:03.675Z,81.18
2023-03-06T04:47:25.345Z,80.90
2023-03-06T04:49:46.951Z,81.18
2023-03-06T04:52:08.691Z,81.61
2023-03-06T04:54:30.676Z,81.54
2023-03-06T04:56:52.209Z,82.09
2023-03-06T04:59:13.826Z,81.68
2023-03-06T05:01:35.539Z,81.56
2023-03-06T05:03:57.150Z,81.90
2023-03-06T05:06:18.756Z,81.55
2023-03-06T05:08:40.380Z,81.38
2023-03-06T05:11:03.560Z,81.38
2023-03-06T05:13:26.645Z,81.79
2023-03-06T05:15:48.251Z,81.65
2023-03-06T05:18:10.011Z,81.93
2023-03-06T05:20:32.145Z,81.59
2023-03-06T05:22:53.726Z,82.19
2023-03-06T05:25:15.468Z,82.03
2023-03-06T05:27:38.175Z,81.69
2023-03-06T05:29:59.838Z,81.97
2023-03-06T05:32:22.929Z,82.57
2023-03-06T05:34:44.588Z,82.27
2023-03-06T05:37:06.287Z,82.89
2023-03-06T05:39:30.198Z,82.75
2023-03-06T05:41:51.771Z,82.48
2023-03-06T05:44:13.370Z,82.34
2023-03-06T05:46:35.042Z,82.29
2023-03-06T05:48:57.853Z,82.78
2023-03-06T05:51:19.506Z,82.41
2023-03-06T05:53:41.261Z,82.76
2023-03-06T05:56:08.753Z,82.55
2023-03-06T05:58:34.419Z,82.59
2023-03-06T06:00:56.404Z,82.64
2023-03-06T06:03:19.296Z,82.75
2023-03-06T06:05:40.912Z,82.81
2023-03-06T06:08:02.550Z,82.89
2023-03-06T06:10:24.197Z,82.66
2023-03-06T06:12:45.841Z,82.76
2023-03-06T06:15:08.102Z,83.06
2023-03-06T06:17:31.371Z,82.89
2023-03-06T06:19:52.984Z,83.37
2023-03-06T06:22:14.571Z,83.62
2023-03-06T06:24:36.218Z,83.38
2023-03-06T06:27:01.472Z,83.17
2023-03-06T06:29:26.921Z,83.61
2023-03-06T06:31:49.018Z,83.33
2023-03-06T06:34:12.759Z,83.36
2023-03-06T06:36:34.518Z,83.13
2023-03-06T06:38:56.362Z,83.14
2023-03-06T06:44:00.447Z,83.04
2023-03-06T06:47:02.647Z,83.01
2023-03-06T06:49:04.221Z,83.02
2023-03-06T06:51:25.917Z,83.23
2023-03-06T06:53:47.582Z,83.27
2023-03-06T06:56:09.140Z,83.24
2023-03-06T06:58:30.729Z,83.21
2023-03-06T07:00:53.011Z,83.19
2023-03-06T07:03:15.034Z,83.41
2023-03-06T07:05:36.602Z,83.09
2023-03-06T07:07:59.034Z,82.80
2023-03-06T07:10:21.210Z,82.66
2023-03-06T07:12:43.062Z,82.69
2023-03-06T07:15:08.041Z,82.59
2023-03-06T07:17:29.724Z,82.94
2023-03-06T07:19:51.356Z,82.72
2023-03-06T07:22:14.097Z,83.10
2023-03-06T07:24:35.756Z,83.09
2023-03-06T07:26:57.761Z,83.13
2023-03-06T07:29:20.245Z,82.79
2023-03-06T07:31:42.341Z,83.15
2023-03-06T07:34:05.092Z,83.09
2023-03-06T07:36:26.916Z,83.41
2023-03-06T07:38:48.912Z,83.29
2023-03-06T07:41:13.814Z,83.23
2023-03-06T07:43:35.482Z,82.81
2023-03-06T07:46:00.585Z,83.49
2023-03-06T07:48:22.298Z,83.24
2023-03-06T07:50:43.994Z,83.29
2023-03-06T07:53:05.674Z,83.58
2023-03-06T07:55:27.293Z,83.30
2023-03-06T07:57:51.635Z,83.75
2023-03-06T08:00:15.803Z,83.57
2023-03-06T08:02:37.448Z,83.66
2023-03-06T08:04:59.128Z,83.34
2023-03-06T08:07:22.165Z,83.42
2023-03-06T08:09:43.851Z,83.25
2023-03-06T08:12:05.897Z,83.63
2023-03-06T08:14:27.870Z,82.77
2023-03-06T08:16:51.141Z,82.83
2023-03-06T08:19:12.787Z,82.59
2023-03-06T08:21:34.616Z,82.58
2023-03-06T08:23:56.670Z,82.31
2023-03-06T08:26:23.054Z,82.16
2023-03-06T08:28:45.443Z,82.33
2023-03-06T08:31:09.407Z,82.01
2023-03-06T08:33:30.972Z,81.69
2023-03-06T08:35:52.785Z,81.63
2023-03-06T08:38:15.028Z,81.73
2023-03-06T08:40:36.631Z,81.42
2023-03-06T08:42:58.280Z,81.77
2023-03-06T08:45:19.906Z,81.55
2023-03-06T08:47:41.490Z,81.35
2023-03-06T08:50:03.930Z,80.96
2023-03-06T08:52:25.647Z,80.75
2023-03-06T08:54:47.292Z,80.86
2023-03-06T08:57:09.211Z,80.47
2023-03-06T08:59:31.663Z,79.92
2023-03-06T09:01:53.359Z,79.41
2023-03-06T09:04:15.009Z,78.54
2023-03-06T09:06:41.444Z,78.15
2023-03-06T09:09:04.712Z,77.13
2023-03-06T09:11:28.184Z,76.74
2023-03-06T09:13:50.454Z,76.14
2023-03-06T09:16:12.501Z,75.02
2023-03-06T09:18:34.278Z,74.13
2023-03-06T09:20:56.324Z,74.70
2023-03-06T09:23:18.008Z,73.69
2023-03-06T09:25:39.606Z,73.74
2023-03-06T09:28:10.895Z,71.80
2023-03-06T09:30:33.503Z,71.43
2023-03-06T09:32:55.153Z,71.32
2023-03-06T09:35:18.726Z,71.09
2023-03-06T09:37:41.920Z,71.55
2023-03-06T09:40:06.392Z,71.21
2023-03-06T09:42:29.175Z,71.03
2023-03-06T09:45:02.245Z,70.28
2023-03-06T09:47:51.870Z,70.08
2023-03-06T09:50:33.890Z,69.02
2023-03-06T09:53:34.109Z,68.82
2023-03-06T09:56:05.954Z,68.67
2023-03-06T09:58:30.834Z,68.48
2023-03-06T10:01:03.447Z,67.64
2023-03-06T10:03:34.236Z,68.55
2023-03-06T10:06:04.061Z,67.85
2023-03-06T10:09:07.186Z,66.46
2023-03-06T10:11:52.676Z,66.72
2023-03-06T10:14:20.343Z,66.23
2023-03-06T10:16:42.471Z,64.87
2023-03-06T10:19:17.256Z,64.40
2023-03-06T10:21:59.952Z,64.11
2023-03-06T10:24:42.416Z,64.68
2023-03-06T10:27:40.487Z,64.21
2023-03-06T10:30:51.556Z,64.07
2023-03-06T10:33:46.997Z,62.37
2023-03-06T10:36:15.987Z,61.33
2023-03-06T10:38:38.308Z,59.94
2023-03-06T10:41:12.266Z,59.04
2023-03-06T10:43:36.659Z,59.17
2023-03-06T10:45:58.402Z,59.99
2023-03-06T10:48:27.447Z,59.99
2023-03-06T10:50:49.553Z,59.78
2023-03-06T10:53:29.185Z,60.28
2023-03-06T10:55:58.876Z,58.66
2023-03-06T10:58:32.800Z,57.87
2023-03-06T11:01:22.381Z,57.59
2023-03-06T11:03:45.514Z,57.60
2023-03-06T11:06:13.490Z,56.93
2023-03-06T11:08:36.229Z,56.86
2023-03-06T11:11:05.549Z,57.68
2023-03-06T11:13:32.022Z,57.23
2023-03-06T11:16:07.284Z,57.51
2023-03-06T11:18:41.287Z,58.31
2023-03-06T11:21:23.104Z,58.79
2023-03-06T11:23:47.342Z,58.80
2023-03-06T11:26:20.038Z,57.37
2023-03-06T11:28:50.916Z,57.89
2023-03-06T11:31:22.465Z,57.69
2023-03-06T11:33:59.247Z,57.89
2023-03-06T11:37:01.516Z,56.41
2023-03-06T11:39:43.765Z,55.21
2023-03-06T11:42:10.331Z,55.87
2023-03-06T11:45:22.943Z,56.15
2023-03-06T11:47:57.744Z,56.59
2023-03-06T11:50:41.331Z,57.31
2023-03-06T11:53:07.336Z,56.98
2023-03-06T11:55:44.777Z,56.89
2023-03-06T11:58:39.662Z,56.52
2023-03-06T12:01:13.010Z,57.40
2023-03-06T12:04:17.903Z,57.39
2023-03-06T12:06:45.454Z,57.52
2023-03-06T12:09:13.130Z,57.33
2023-03-06T12:11:58.988Z,56.93
2023-03-06T12:14:52.583Z,57.32
2023-03-06T12:17:35.534Z,57.03
2023-03-06T12:20:39.692Z,56.94
2023-03-06T12:23:29.919Z,57.18
2023-03-06T12:26:20.672Z,57.22
2023-03-06T12:29:11.546Z,55.88
2023-03-06T12:31:59.300Z,56.48
2023-03-06T12:34:52.380Z,54.96
2023-03-06T12:38:14.746Z,54.73
2023-03-06T12:41:31.742Z,54.89
2023-03-06T12:44:40.494Z,54.28
2023-03-06T12:47:09.220Z,54.11
2023-03-06T12:49:38.666Z,54.12
2023-03-06T12:52:04.965Z,54.04
2023-03-06T12:54:33.488Z,53.17
2023-03-06T12:56:59.797Z,54.43
2023-03-06T12:59:47.222Z,54.36
2023-03-06T13:02:54.765Z,53.49
2023-03-06T13:06:01.408Z,54.45
2023-03-06T13:09:07.238Z,55.07
2023-03-06T13:12:06.075Z,54.59
2023-03-06T13:14:34.267Z,55.30
2023-03-06T13:17:22.998Z,55.54
2023-03-06T13:19:44.664Z,55.96
2023-03-06T13:22:29.331Z,55.20
2023-03-06T13:25:16.714Z,55.72
2023-03-06T13:27:53.618Z,56.46
2023-03-06T13:30:28.429Z,56.67
2023-03-06T13:32:55.374Z,56.67
2023-03-06T13:35:32.330Z,56.73
2023-03-06T13:37:54.545Z,56.77
2023-03-06T13:40:33.609Z,56.52
2023-03-06T13:43:21.394Z,56.70
2023-03-06T13:45:47.081Z,57.00
2023-03-06T13:48:44.637Z,57.29
2023-03-06T13:51:28.042Z,57.96
2023-03-06T13:54:20.631Z,57.95
2023-03-06T13:57:17.344Z,57.37
2023-03-06T14:00:18.999Z,57.33
2023-03-06T14:03:27.643Z,58.17
2023-03-06T14:05:51.985Z,58.06
2023-03-06T14:08:24.680Z,57.16
2023-03-06T14:10:59.219Z,57.19
2023-03-06T14:13:45.341Z,57.80
2023-03-06T14:16:22.976Z,59.09
2023-03-06T14:18:49.576Z,59.58
2023-03-06T14:21:14.484Z,59.70
2023-03-06T14:23:42.400Z,60.08
2023-03-06T14:26:23.926Z,60.88
2023-03-06T14:29:01.213Z,61.48
2023-03-06T14:31:27.712Z,61.44
2023-03-06T14:34:19.279Z,61.06
2023-03-06T14:36:48.563Z,61.30
2023-03-06T14:39:33.969Z,61.06
2023-03-06T14:42:06.046Z,60.30
2023-03-06T14:44:27.800Z,59.89
2023-03-06T14:46:56.468Z,59.78
2023-03-06T14:49:21.075Z,59.50
2023-03-06T14:51:47.734Z,58.29
2023-03-06T14:54:27.937Z,58.11
2023-03-06T14:56:58.669Z,56.52
2023-03-06T14:59:30.465Z,55.50
2023-03-06T15:02:02.697Z,55.53
2023-03-06T15:04:39.362Z,55.45
2023-03-06T15:07:01.472Z,55.80
2023-03-06T15:09:36.703Z,56.21
2023-03-06T15:12:01.267Z,56.63
2023-03-06T15:14:59.547Z,56.12
2023-03-06T15:17:29.852Z,56.00
2023-03-06T15:19:58.722Z,55.91
2023-03-06T15:22:44.100Z,56.69
2023-03-06T15:25:20.108Z,56.27
2023-03-06T15:27:50.195Z,55.24
2023-03-06T15:30:36.879Z,55.13
2023-03-06T15:33:19.711Z,54.61
2023-03-06T15:36:01.996Z,55.89
2023-03-06T15:38:44.281Z,58.13
2023-03-06T15:41:20.730Z,59.05
2023-03-06T15:43:42.441Z,57.81
2023-03-06T15:46:07.646Z,56.63
2023-03-06T15:48:29.361Z,57.20
2023-03-06T15:50:51.095Z,58.95
2023-03-06T15:53:12.733Z,59.74
2023-03-06T15:55:34.418Z,61.93
2023-03-06T15:58:02.052Z,63.30
2023-03-06T16:00:32.404Z,64.25
2023-03-06T16:02:58.536Z,64.95
2023-03-06T16:05:21.682Z,65.17
2023-03-06T16:07:43.829Z,65.32
2023-03-06T16:10:05.777Z,66.23
2023-03-06T16:12:30.733Z,67.03
2023-03-06T16:14:52.498Z,67.62
2023-03-06T16:17:15.580Z,67.10
2023-03-06T16:19:37.186Z,67.51
2023-03-06T16:21:59.232Z,68.06
2023-03-06T16:24:21.027Z,68.27
2023-03-06T16:26:47.112Z,68.53
2023-03-06T16:29:17.766Z,68.78
2023-03-06T16:31:39.424Z,69.15
2023-03-06T16:34:01.065Z,68.22
2023-03-06T16:36:27.156Z,68.21
2023-03-06T16:38:50.292Z,68.40
2023-03-06T16:41:11.931Z,68.79
2023-03-06T16:43:33.658Z,68.47
2023-03-06T16:45:55.644Z,69.04
2023-03-06T16:48:17.387Z,68.97
2023-03-06T16:50:40.545Z,69.10
2023-03-06T16:53:02.273Z,68.61
2023-03-06T16:55:26.860Z,68.49
2023-03-06T16:57:49.096Z,68.60
2023-03-06T17:00:12.115Z,68.90
2023-03-06T17:02:33.977Z,69.34
2023-03-06T17:04:55.839Z,69.58
2023-03-06T17:07:17.443Z,69.59
2023-03-06T17:09:39.085Z,69.35
2023-03-06T17:12:00.701Z,70.17
2023-03-06T17:14:22.316Z,70.21
2023-03-06T17:16:44.001Z,70.06
2023-03-06T17:19:06.887Z,70.12
2023-03-06T17:21:30.150Z,70.18
2023-03-06T17:23:51.844Z,70.68
2023-03-06T17:26:18.820Z,70.50
2023-03-06T17:28:41.891Z,70.28
2023-03-06T17:31:17.226Z,71.01
2023-03-06T17:33:39.044Z,70.91
2023-03-06T17:36:01.172Z,72.08
2023-03-06T17:38:22.872Z,71.30
2023-03-06T17:40:44.554Z,70.97
2023-03-06T17:43:06.139Z,71.55
2023-03-06T17:45:29.496Z,71.34
2023-03-06T17:47:54.414Z,70.95
2023-03-06T17:50:16.303Z,70.51
2023-03-06T17:52:38.968Z,70.22
2023-03-06T17:55:00.705Z,70.25
2023-03-06T17:57:22.309Z,69.43
2023-03-06T17:59:48.461Z,69.20
2023-03-06T18:02:11.260Z,68.66
2023-03-06T18:04:32.857Z,68.40
2023-03-06T18:06:54.666Z,68.26
2023-03-06T18:09:16.400Z,68.37
2023-03-06T18:11:39.170Z,69.29
2023-03-06T18:14:00.741Z,68.46
2023-03-06T18:16:25.960Z,68.73
2023-03-06T18:18:47.794Z,68.88
2023-03-06T18:21:13.553Z,69.42
2023-03-06T18:23:36.535Z,69.54
2023-03-06T18:26:15.673Z,69.52
2023-03-06T18:28:44.655Z,70.11
2023-03-06T18:31:14.165Z,70.04
2023-03-06T18:33:35.826Z,70.13
2023-03-06T18:36:02.865Z,69.85
2023-03-06T18:38:24.494Z,69.27
2023-03-06T18:40:46.211Z,69.80
2023-03-06T18:43:07.967Z,69.79
2023-03-06T18:45:29.688Z,69.51
2023-03-06T18:47:51.350Z,69.74
2023-03-06T18:50:17.421Z,69.51
2023-03-06T18:52:39.137Z,68.94
2023-03-06T18:55:00.836Z,69.23
2023-03-06T18:57:22.577Z,69.64
2023-03-06T18:59:44.347Z,69.56
2023-03-06T19:02:06.773Z,69.98
2023-03-06T19:04:28.538Z,69.77
2023-03-06T19:06:51.372Z,69.71
2023-03-06T19:09:13.007Z,70.29
2023-03-06T19:11:34.979Z,70.16
2023-03-06T19:13:56.666Z,69.77
2023-03-06T19:16:25.590Z,70.35
2023-03-06T19:18:47.590Z,69.82
2023-03-06T19:21:14.893Z,69.47
2023-03-06T19:23:37.058Z,69.98
2023-03-06T19:26:00.424Z,70.18
2023-03-06T19:28:22.124Z,69.79
2023-03-06T19:30:43.726Z,69.68
2023-03-06T19:33:05.331Z,69.47
2023-03-06T19:35:27.600Z,69.45
2023-03-06T19:37:49.605Z,69.49
2023-03-06T19:40:12.756Z,69.27
2023-03-06T19:42:34.440Z,68.92
2023-03-06T19:44:56.121Z,69.27
2023-03-06T19:47:17.747Z,69.11
2023-03-06T19:49:40.613Z,68.63
2023-03-06T19:52:02.371Z,68.89
2023-03-06T19:54:25.515Z,69.05
2023-03-06T19:56:47.204Z,68.80
2023-03-06T19:59:08.840Z,69.10
2023-03-06T20:01:30.862Z,68.98
2023-03-06T20:03:59.055Z,69.26
2023-03-06T20:06:22.282Z,69.35
2023-03-06T20:08:45.900Z,69.27
2023-03-06T20:11:22.278Z,69.58
2023-03-06T20:13:47.302Z,70.37
2023-03-06T20:16:09.289Z,70.69
2023-03-06T20:18:31.070Z,71.48
2023-03-06T20:21:03.835Z,71.54
2023-03-06T20:23:26.306Z,71.91
2023-03-06T20:25:47.952Z,72.64
2023-03-06T20:28:09.570Z,72.73
2023-03-06T20:30:37.724Z,73.06
2023-03-06T20:32:59.981Z,73.82
2023-03-06T20:35:22.726Z,74.05
2023-03-06T20:37:44.546Z,74.35
2023-03-06T20:40:08.348Z,74.93
2023-03-06T20:42:30.157Z,75.77
2023-03-06T20:44:51.791Z,75.54
2023-03-06T20:47:13.514Z,76.09
2023-03-06T20:49:36.552Z,76.83
2023-03-06T20:51:58.247Z,77.10
2023-03-06T20:54:20.078Z,76.76
2023-03-06T20:56:46.903Z,77.27
2023-03-06T20:59:12.155Z,77.99
2023-03-06T21:01:41.557Z,78.76
2023-03-06T21:04:06.786Z,78.90
2023-03-06T21:06:29.343Z,78.92
2023-03-06T21:08:51.316Z,79.57
2023-03-06T21:11:13.569Z,79.73
2023-03-06T21:13:35.288Z,80.26
2023-03-06T21:15:56.985Z,80.09
2023-03-06T21:18:18.917Z,80.38
2023-03-06T21:20:42.248Z,80.78
2023-03-06T21:23:04.322Z,81.42
2023-03-06T21:25:25.970Z,81.57
2023-03-06T21:27:47.796Z,81.71
2023-03-06T21:30:10.512Z,81.68
2023-03-06T21:32:33.147Z,81.54
2023-03-06T21:34:54.846Z,82.04
2023-03-06T21:37:16.523Z,82.52
2023-03-06T21:39:38.533Z,83.01
2023-03-06T21:42:00.281Z,82.69
2023-03-06T21:44:22.482Z,83.34
2023-03-06T21:46:44.090Z,83.20
2023-03-06T21:49:05.836Z,83.25
2023-03-06T21:51:27.560Z,83.10
2023-03-06T21:53:50.266Z,83.58
2023-03-06T21:56:14.460Z,83.17
2023-03-06T21:58:36.562Z,83.72
2023-03-06T22:00:58.483Z,83.62
2023-03-06T22:03:21.108Z,83.19
2023-03-06T22:05:43.291Z,83.25
2023-03-06T22:08:05.018Z,83.18
2023-03-06T22:10:26.710Z,83.73
2023-03-06T22:12:48.492Z,83.82
2023-03-06T22:15:10.506Z,84.08
2023-03-06T22:17:32.864Z,84.12
2023-03-06T22:19:54.590Z,84.54
2023-03-06T22:22:16.260Z,84.79
2023-03-06T22:24:38.042Z,84.82
2023-03-06T22:26:59.778Z,84.49
2023-03-06T22:29:21.440Z,84.19
2023-03-06T22:31:43.187Z,84.27
2023-03-06T22:34:04.949Z,84.50
2023-03-06T22:36:30.633Z,84.31
2023-03-06T22:39:00.119Z,84.85
2023-03-06T22:41:22.501Z,84.46
2023-03-06T22:43:44.288Z,84.88
2023-03-06T22:46:15.474Z,84.92
2023-03-06T22:48:37.414Z,85.08
2023-03-06T22:51:14.606Z,85.27
2023-03-06T22:53:37.540Z,85.33
2023-03-06T22:56:02.054Z,84.69
2023-03-06T22:58:23.604Z,85.45
2023-03-06T23:00:47.332Z,85.07
2023-03-06T23:03:08.964Z,85.30
2023-03-06T23:05:30.639Z,85.51
2023-03-06T23:07:52.286Z,85.35
2023-03-06T23:10:13.898Z,84.95
2023-03-06T23:12:54.265Z,85.81
2023-03-06T23:15:35.773Z,85.57
2023-03-06T23:18:15.801Z,85.87
2023-03-06T23:20:56.238Z,86.19
2023-03-06T23:23:39.048Z,86.10
2023-03-06T23:26:01.451Z,86.14
2023-03-06T23:28:23.137Z,85.77
2023-03-06T23:30:44.962Z,85.90
2023-03-06T23:33:07.066Z,86.51
2023-03-06T23:35:28.791Z,86.40
2023-03-06T23:37:50.446Z,86.25
2023-03-06T23:40:13.711Z,86.42
2023-03-06T23:42:35.416Z,86.09
2023-03-06T23:44:57.066Z,86.32
2023-03-06T23:47:20.053Z,86.23
2023-03-06T23:49:41.778Z,86.36
2023-03-06T23:52:04.391Z,86.00
2023-03-06T23:54:26.064Z,85.98
2023-03-06T23:56:47.671Z,85.46
2023-03-06T23:59:11.374Z,85.58
